KFRR/FRR METAR and TAF weather

Enter ICAO airport designator
Station Type Date Time Source
KFRR METAR 2022/05/24 11:35 UTC NOAA

KFRR 241135Z AUTO 00000KT 2SM BKN003 OVC007 12/11 A3021 RMK AO1


Station Type Date Time Source
KFRR Decoded METAR 2022/05/24 11:35 UTC NOAA

Station name not available
May 24, 2022 - 07:35 AM EDT / 2022.05.24 1135 UTC
Wind: Calm:0
Visibility: 2 mile(s):0
Sky conditions: overcast
Temperature: 53 F (12 C)
Dew Point: 51 F (11 C)
Relative Humidity: 93%
Pressure (altimeter): 30.21 in. Hg (1023 hPa)
ob: KFRR 241135Z AUTO 00000KT 2SM BKN003 OVC007 12/11 A3021 RMK AO1
cycle: 11

Station Type Date Time Source
KFRR TAF UTC NOAA

Error!

Example: see airport list